Namaste — LXYI — position and weather

sailwx.info

Track history (hours):
 
Tides and Currents Weather Stations Pressure Air Temp Water Temp Dewpoint Dewpoint Depression Visibility Wind Speed Wind Dir Waves Ship Positions

Namaste

Last reported at 2014-Aug-25 14:32 UTC. Time now 2014-Sep-01 11:39 UTC.
Position N 43°40' E 007°28'.

Length 40 m; draft 1.6 m.

Type: Pleasure craft. MMSI: 253317000.

Date/timePositionNaut miles runAvg speedWind from/ knotsBaromVisibWave heightAir tempDewpointWater temp
2014-Aug-25 14:32N 43°40' E 007°28'1313.7
2014-Aug-25 13:33N 43°33' E 007°12'1414.1
2014-Aug-25 12:33N 43°26' E 006°55'1414.2
2014-Aug-25 11:33N 43°17' E 006°39'1 0.1
2014-Aug-24 13:18N 43°16' E 006°38'2 2.0
2014-Aug-24 12:31N 43°16' E 006°36'0 0.0
2014-Aug-24 11:29N 43°16' E 006°36'0 0.0
2014-Aug-24 10:24N 43°16' E 006°36'0 0.0
2014-Aug-24 09:30N 43°16' E 006°36'0 0.0
2014-Aug-24 08:24N 43°16' E 006°36'0 0.0
2014-Aug-24 07:27N 43°16' E 006°36'0 0.0
2014-Aug-24 06:24N 43°16' E 006°36'0 0.0
2014-Aug-24 05:30N 43°16' E 006°36'0 0.0
2014-Aug-24 04:27N 43°16' E 006°36'0 0.0
2014-Aug-24 03:33N 43°16' E 006°36'0 0.0
2014-Aug-24 02:12N 43°16' E 006°36'0 0.0
2014-Aug-24 01:33N 43°16' E 006°36'0 0.0
2014-Aug-24 00:33N 43°16' E 006°36'0 0.0
2014-Aug-23 23:24N 43°16' E 006°36'0 0.0
2014-Aug-23 22:33N 43°16' E 006°36'0 0.0
2014-Aug-23 21:34N 43°16' E 006°36'0 0.0
2014-Aug-23 20:33N 43°16' E 006°36'1 0.5
2014-Aug-23 19:34N 43°17' E 006°37'39 1.5
2014-Aug-22 17:10N 43°42' E 007°17'0 0.0
2014-Aug-22 16:33N 43°42' E 007°17'0 0.0
2014-Aug-22 15:33N 43°42' E 007°17'0 0.0
2014-Aug-22 14:33N 43°42' E 007°17'1111.1
2014-Aug-22 13:33N 43°32' E 007°09'1312.3
2014-Aug-22 12:32N 43°26' E 006°54'0 0.2
2014-Aug-22 11:26N 43°26' E 006°54'1213.9
2014-Aug-22 10:34N 43°18' E 006°41'3 3.2
2014-Aug-22 09:32N 43°16' E 006°38'0 0.0
2014-Aug-22 08:32N 43°16' E 006°38'0 0.0
2014-Aug-22 07:32N 43°16' E 006°38'0 0.0
2014-Aug-22 06:30N 43°16' E 006°38'5 5.1
2014-Aug-22 05:34N 43°19' E 006°43'1414.0
2014-Aug-22 04:33N 43°28' E 006°57'3 2.1
2014-Aug-22 03:16N 43°31' E 006°57'0 0.0
2014-Aug-22 02:22N 43°31' E 006°57'0 0.0
2014-Aug-21 18:15N 43°31' E 006°57'0 0.0
2014-Aug-21 17:33N 43°31' E 006°57'0 0.3
2014-Aug-21 16:33N 43°31' E 006°57'10 9.8
2014-Aug-21 15:33N 43°33' E 007°10'  
Track history (hours):
 
Tides and Currents Weather Stations Pressure Air Temp Water Temp Dewpoint Dewpoint Depression Visibility Wind Speed Wind Dir Waves Ship Positions

Namaste

Last reported at 2014-Aug-25 14:32 UTC. Time now 2014-Sep-01 11:39 UTC.
Position N 43°40' E 007°28'.

Length 40 m; draft 1.6 m.

Type: Pleasure craft. MMSI: 253317000.

Date/timePositionNaut miles runAvg speedWind from/ knotsBaromVisibWave heightAir tempDewpointWater temp
2014-Aug-25 14:32N 43°40' E 007°28'1313.7
2014-Aug-25 13:33N 43°33' E 007°12'1414.1
2014-Aug-25 12:33N 43°26' E 006°55'1414.2
2014-Aug-25 11:33N 43°17' E 006°39'1 0.1
2014-Aug-24 13:18N 43°16' E 006°38'2 2.0
2014-Aug-24 12:31N 43°16' E 006°36'0 0.0
2014-Aug-24 11:29N 43°16' E 006°36'0 0.0
2014-Aug-24 10:24N 43°16' E 006°36'0 0.0
2014-Aug-24 09:30N 43°16' E 006°36'0 0.0
2014-Aug-24 08:24N 43°16' E 006°36'0 0.0
2014-Aug-24 07:27N 43°16' E 006°36'0 0.0
2014-Aug-24 06:24N 43°16' E 006°36'0 0.0
2014-Aug-24 05:30N 43°16' E 006°36'0 0.0
2014-Aug-24 04:27N 43°16' E 006°36'0 0.0
2014-Aug-24 03:33N 43°16' E 006°36'0 0.0
2014-Aug-24 02:12N 43°16' E 006°36'0 0.0
2014-Aug-24 01:33N 43°16' E 006°36'0 0.0
2014-Aug-24 00:33N 43°16' E 006°36'0 0.0
2014-Aug-23 23:24N 43°16' E 006°36'0 0.0
2014-Aug-23 22:33N 43°16' E 006°36'0 0.0
2014-Aug-23 21:34N 43°16' E 006°36'0 0.0
2014-Aug-23 20:33N 43°16' E 006°36'1 0.5
2014-Aug-23 19:34N 43°17' E 006°37'39 1.5
2014-Aug-22 17:10N 43°42' E 007°17'0 0.0
2014-Aug-22 16:33N 43°42' E 007°17'0 0.0
2014-Aug-22 15:33N 43°42' E 007°17'0 0.0
2014-Aug-22 14:33N 43°42' E 007°17'1111.1
2014-Aug-22 13:33N 43°32' E 007°09'1312.3
2014-Aug-22 12:32N 43°26' E 006°54'0 0.2
2014-Aug-22 11:26N 43°26' E 006°54'1213.9
2014-Aug-22 10:34N 43°18' E 006°41'3 3.2
2014-Aug-22 09:32N 43°16' E 006°38'0 0.0
2014-Aug-22 08:32N 43°16' E 006°38'0 0.0
2014-Aug-22 07:32N 43°16' E 006°38'0 0.0
2014-Aug-22 06:30N 43°16' E 006°38'5 5.1
2014-Aug-22 05:34N 43°19' E 006°43'1414.0
2014-Aug-22 04:33N 43°28' E 006°57'3 2.1
2014-Aug-22 03:16N 43°31' E 006°57'0 0.0
2014-Aug-22 02:22N 43°31' E 006°57'0 0.0
2014-Aug-21 18:15N 43°31' E 006°57'0 0.0
2014-Aug-21 17:33N 43°31' E 006°57'0 0.3
2014-Aug-21 16:33N 43°31' E 006°57'10 9.8
2014-Aug-21 15:33N 43°33' E 007°10'  

Dump ship's entire track history